sensor_id;sensor_type;location;lat;lon;timestamp;P1;durP1;ratioP1;P2;durP2;ratioP2
19566;SDS011;9930;49.240;8.548;2024-03-17T00:01:20;3.75;;;3.45;;
19566;SDS011;9930;49.240;8.548;2024-03-17T00:03:45;3.67;;;3.38;;
19566;SDS011;9930;49.240;8.548;2024-03-17T00:06:11;3.65;;;3.35;;
19566;SDS011;9930;49.240;8.548;2024-03-17T00:08:37;3.70;;;3.38;;
19566;SDS011;9930;49.240;8.548;2024-03-17T00:11:03;3.97;;;3.50;;
19566;SDS011;9930;49.240;8.548;2024-03-17T00:13:28;3.83;;;3.30;;
19566;SDS011;9930;49.240;8.548;2024-03-17T00:15:54;4.00;;;3.70;;
19566;SDS011;9930;49.240;8.548;2024-03-17T00:18:20;4.32;;;3.92;;
19566;SDS011;9930;49.240;8.548;2024-03-17T00:20:45;3.83;;;3.53;;
19566;SDS011;9930;49.240;8.548;2024-03-17T00:23:11;3.97;;;3.60;;
19566;SDS011;9930;49.240;8.548;2024-03-17T00:25:38;3.80;;;3.47;;
19566;SDS011;9930;49.240;8.548;2024-03-17T00:28:04;3.78;;;3.47;;
19566;SDS011;9930;49.240;8.548;2024-03-17T00:30:30;5.00;;;4.57;;
19566;SDS011;9930;49.240;8.548;2024-03-17T00:32:56;4.90;;;4.18;;
19566;SDS011;9930;49.240;8.548;2024-03-17T00:35:25;5.55;;;4.78;;
19566;SDS011;9930;49.240;8.548;2024-03-17T00:37:51;4.63;;;4.22;;
19566;SDS011;9930;49.240;8.548;2024-03-17T00:40:18;4.78;;;4.38;;
19566;SDS011;9930;49.240;8.548;2024-03-17T00:42:45;4.63;;;4.22;;
19566;SDS011;9930;49.240;8.548;2024-03-17T00:45:11;5.78;;;3.95;;
19566;SDS011;9930;49.240;8.548;2024-03-17T00:47:37;4.38;;;4.03;;
19566;SDS011;9930;49.240;8.548;2024-03-17T00:50:04;4.10;;;3.65;;
19566;SDS011;9930;49.240;8.548;2024-03-17T00:52:32;4.47;;;3.55;;
19566;SDS011;9930;49.240;8.548;2024-03-17T00:54:58;4.90;;;4.05;;
19566;SDS011;9930;49.240;8.548;2024-03-17T00:57:24;3.83;;;3.53;;
19566;SDS011;9930;49.240;8.548;2024-03-17T00:59:50;3.90;;;3.58;;
19566;SDS011;9930;49.240;8.548;2024-03-17T01:02:17;4.15;;;3.85;;
19566;SDS011;9930;49.240;8.548;2024-03-17T01:04:43;4.05;;;3.72;;
19566;SDS011;9930;49.240;8.548;2024-03-17T01:07:10;4.15;;;3.75;;
19566;SDS011;9930;49.240;8.548;2024-03-17T01:09:37;3.78;;;3.47;;
19566;SDS011;9930;49.240;8.548;2024-03-17T01:12:04;4.43;;;4.03;;
19566;SDS011;9930;49.240;8.548;2024-03-17T01:14:30;4.45;;;4.05;;
19566;SDS011;9930;49.240;8.548;2024-03-17T01:16:56;5.05;;;4.35;;
19566;SDS011;9930;49.240;8.548;2024-03-17T01:19:23;4.22;;;3.92;;
19566;SDS011;9930;49.240;8.548;2024-03-17T01:21:50;4.50;;;4.10;;
19566;SDS011;9930;49.240;8.548;2024-03-17T01:24:16;3.75;;;3.45;;
19566;SDS011;9930;49.240;8.548;2024-03-17T01:26:43;4.53;;;4.13;;
19566;SDS011;9930;49.240;8.548;2024-03-17T01:29:10;4.35;;;3.88;;
19566;SDS011;9930;49.240;8.548;2024-03-17T01:31:35;4.45;;;3.95;;
19566;SDS011;9930;49.240;8.548;2024-03-17T01:34:01;4.65;;;4.20;;
19566;SDS011;9930;49.240;8.548;2024-03-17T01:36:27;4.85;;;4.40;;
19566;SDS011;9930;49.240;8.548;2024-03-17T01:38:54;4.63;;;4.22;;
19566;SDS011;9930;49.240;8.548;2024-03-17T01:41:20;5.07;;;4.60;;
19566;SDS011;9930;49.240;8.548;2024-03-17T01:43:45;4.40;;;4.07;;
19566;SDS011;9930;49.240;8.548;2024-03-17T01:46:12;5.10;;;4.70;;
19566;SDS011;9930;49.240;8.548;2024-03-17T01:48:40;5.35;;;4.95;;
19566;SDS011;9930;49.240;8.548;2024-03-17T01:51:07;6.00;;;5.40;;
19566;SDS011;9930;49.240;8.548;2024-03-17T01:53:36;5.78;;;5.28;;
19566;SDS011;9930;49.240;8.548;2024-03-17T01:56:04;5.38;;;4.88;;
19566;SDS011;9930;49.240;8.548;2024-03-17T01:58:34;4.85;;;4.45;;
19566;SDS011;9930;49.240;8.548;2024-03-17T02:01:01;4.80;;;4.40;;
19566;SDS011;9930;49.240;8.548;2024-03-17T02:03:29;4.82;;;4.43;;
19566;SDS011;9930;49.240;8.548;2024-03-17T02:05:55;5.15;;;4.75;;
19566;SDS011;9930;49.240;8.548;2024-03-17T02:08:22;5.45;;;4.78;;
19566;SDS011;9930;49.240;8.548;2024-03-17T02:10:54;5.13;;;4.63;;
19566;SDS011;9930;49.240;8.548;2024-03-17T02:13:25;4.93;;;4.40;;
19566;SDS011;9930;49.240;8.548;2024-03-17T02:15:51;4.40;;;4.05;;
19566;SDS011;9930;49.240;8.548;2024-03-17T02:18:17;3.63;;;3.33;;
19566;SDS011;9930;49.240;8.548;2024-03-17T02:20:43;3.78;;;3.47;;
19566;SDS011;9930;49.240;8.548;2024-03-17T02:23:23;3.85;;;3.55;;
19566;SDS011;9930;49.240;8.548;2024-03-17T02:25:51;3.90;;;3.60;;
19566;SDS011;9930;49.240;8.548;2024-03-17T02:28:18;3.97;;;3.58;;
19566;SDS011;9930;49.240;8.548;2024-03-17T02:30:44;4.18;;;3.78;;
19566;SDS011;9930;49.240;8.548;2024-03-17T02:33:10;3.90;;;3.60;;
19566;SDS011;9930;49.240;8.548;2024-03-17T02:35:35;4.10;;;3.78;;
19566;SDS011;9930;49.240;8.548;2024-03-17T02:38:01;3.97;;;3.65;;
19566;SDS011;9930;49.240;8.548;2024-03-17T02:40:27;4.50;;;4.10;;
19566;SDS011;9930;49.240;8.548;2024-03-17T02:42:53;4.50;;;4.10;;
19566;SDS011;9930;49.240;8.548;2024-03-17T02:45:20;4.55;;;4.15;;
19566;SDS011;9930;49.240;8.548;2024-03-17T02:47:46;3.83;;;3.53;;
19566;SDS011;9930;49.240;8.548;2024-03-17T02:50:12;4.53;;;4.13;;
19566;SDS011;9930;49.240;8.548;2024-03-17T02:52:38;5.35;;;4.85;;
19566;SDS011;9930;49.240;8.548;2024-03-17T02:55:04;5.38;;;4.97;;
19566;SDS011;9930;49.240;8.548;2024-03-17T02:57:31;5.65;;;5.10;;
19566;SDS011;9930;49.240;8.548;2024-03-17T02:59:57;5.68;;;5.18;;
19566;SDS011;9930;49.240;8.548;2024-03-17T03:02:29;5.05;;;4.65;;
19566;SDS011;9930;49.240;8.548;2024-03-17T03:04:54;6.15;;;5.32;;
19566;SDS011;9930;49.240;8.548;2024-03-17T03:07:20;5.38;;;4.88;;
19566;SDS011;9930;49.240;8.548;2024-03-17T03:09:46;5.22;;;4.68;;
19566;SDS011;9930;49.240;8.548;2024-03-17T03:12:12;5.03;;;4.53;;
19566;SDS011;9930;49.240;8.548;2024-03-17T03:14:37;5.03;;;4.63;;
19566;SDS011;9930;49.240;8.548;2024-03-17T03:17:03;5.18;;;4.75;;
19566;SDS011;9930;49.240;8.548;2024-03-17T03:19:29;4.90;;;4.50;;
19566;SDS011;9930;49.240;8.548;2024-03-17T03:21:55;5.22;;;4.82;;
19566;SDS011;9930;49.240;8.548;2024-03-17T03:24:21;5.75;;;5.18;;
19566;SDS011;9930;49.240;8.548;2024-03-17T03:26:47;5.07;;;4.68;;
19566;SDS011;9930;49.240;8.548;2024-03-17T03:29:13;5.13;;;4.70;;
19566;SDS011;9930;49.240;8.548;2024-03-17T03:31:39;5.28;;;4.78;;
19566;SDS011;9930;49.240;8.548;2024-03-17T03:34:05;5.80;;;4.75;;
19566;SDS011;9930;49.240;8.548;2024-03-17T03:36:33;5.13;;;4.72;;
19566;SDS011;9930;49.240;8.548;2024-03-17T03:39:03;5.10;;;4.57;;
19566;SDS011;9930;49.240;8.548;2024-03-17T03:41:36;4.55;;;4.15;;
19566;SDS011;9930;49.240;8.548;2024-03-17T03:44:01;4.40;;;4.00;;
19566;SDS011;9930;49.240;8.548;2024-03-17T03:46:27;4.80;;;4.38;;
19566;SDS011;9930;49.240;8.548;2024-03-17T03:48:53;4.32;;;4.00;;
19566;SDS011;9930;49.240;8.548;2024-03-17T03:51:19;4.32;;;4.03;;
19566;SDS011;9930;49.240;8.548;2024-03-17T03:53:44;4.18;;;3.78;;
19566;SDS011;9930;49.240;8.548;2024-03-17T03:56:10;4.40;;;4.00;;
19566;SDS011;9930;49.240;8.548;2024-03-17T03:58:37;4.72;;;4.32;;
19566;SDS011;9930;49.240;8.548;2024-03-17T04:01:08;5.35;;;4.43;;
19566;SDS011;9930;49.240;8.548;2024-03-17T04:03:40;4.80;;;4.28;;
19566;SDS011;9930;49.240;8.548;2024-03-17T04:06:10;4.72;;;4.32;;
19566;SDS011;9930;49.240;8.548;2024-03-17T04:08:36;4.90;;;4.50;;
19566;SDS011;9930;49.240;8.548;2024-03-17T04:11:06;4.53;;;4.15;;
19566;SDS011;9930;49.240;8.548;2024-03-17T04:13:32;4.20;;;3.90;;
19566;SDS011;9930;49.240;8.548;2024-03-17T04:15:59;4.65;;;4.25;;
19566;SDS011;9930;49.240;8.548;2024-03-17T04:18:26;4.85;;;4.45;;
19566;SDS011;9930;49.240;8.548;2024-03-17T04:20:55;5.30;;;4.80;;
19566;SDS011;9930;49.240;8.548;2024-03-17T04:23:22;5.05;;;4.60;;
19566;SDS011;9930;49.240;8.548;2024-03-17T04:25:50;5.10;;;4.70;;
19566;SDS011;9930;49.240;8.548;2024-03-17T04:28:17;5.88;;;4.63;;
19566;SDS011;9930;49.240;8.548;2024-03-17T04:30:43;4.50;;;4.10;;
19566;SDS011;9930;49.240;8.548;2024-03-17T04:33:10;4.40;;;4.10;;
19566;SDS011;9930;49.240;8.548;2024-03-17T04:35:37;4.18;;;3.80;;
19566;SDS011;9930;49.240;8.548;2024-03-17T04:38:05;4.53;;;4.13;;
19566;SDS011;9930;49.240;8.548;2024-03-17T04:40:31;4.57;;;4.05;;
19566;SDS011;9930;49.240;8.548;2024-03-17T04:43:04;4.03;;;3.63;;
19566;SDS011;9930;49.240;8.548;2024-03-17T04:45:30;4.22;;;3.88;;
19566;SDS011;9930;49.240;8.548;2024-03-17T04:47:55;3.90;;;3.60;;
19566;SDS011;9930;49.240;8.548;2024-03-17T04:50:21;3.90;;;3.60;;
19566;SDS011;9930;49.240;8.548;2024-03-17T04:52:47;4.95;;;3.95;;
19566;SDS011;9930;49.240;8.548;2024-03-17T04:55:14;3.90;;;3.60;;
19566;SDS011;9930;49.240;8.548;2024-03-17T04:57:41;4.10;;;3.70;;
19566;SDS011;9930;49.240;8.548;2024-03-17T05:00:09;4.18;;;3.88;;
19566;SDS011;9930;49.240;8.548;2024-03-17T05:02:37;4.18;;;3.70;;
19566;SDS011;9930;49.240;8.548;2024-03-17T05:05:04;4.68;;;4.28;;
19566;SDS011;9930;49.240;8.548;2024-03-17T05:07:30;4.03;;;3.67;;
19566;SDS011;9930;49.240;8.548;2024-03-17T05:09:56;4.03;;;3.72;;
19566;SDS011;9930;49.240;8.548;2024-03-17T05:12:22;3.65;;;3.25;;
19566;SDS011;9930;49.240;8.548;2024-03-17T05:14:48;3.80;;;3.50;;
19566;SDS011;9930;49.240;8.548;2024-03-17T05:17:14;3.60;;;3.35;;
19566;SDS011;9930;49.240;8.548;2024-03-17T05:19:39;5.93;;;3.97;;
19566;SDS011;9930;49.240;8.548;2024-03-17T05:22:05;3.58;;;3.25;;
19566;SDS011;9930;49.240;8.548;2024-03-17T05:24:31;3.80;;;3.50;;
19566;SDS011;9930;49.240;8.548;2024-03-17T05:26:57;4.00;;;3.70;;
19566;SDS011;9930;49.240;8.548;2024-03-17T05:29:22;3.97;;;3.60;;
19566;SDS011;9930;49.240;8.548;2024-03-17T05:31:49;4.15;;;3.72;;
19566;SDS011;9930;49.240;8.548;2024-03-17T05:34:15;3.83;;;3.53;;
19566;SDS011;9930;49.240;8.548;2024-03-17T05:36:40;4.45;;;4.05;;
19566;SDS011;9930;49.240;8.548;2024-03-17T05:39:06;4.28;;;3.80;;
19566;SDS011;9930;49.240;8.548;2024-03-17T05:41:32;3.97;;;3.55;;
19566;SDS011;9930;49.240;8.548;2024-03-17T05:43:58;4.35;;;4.05;;
19566;SDS011;9930;49.240;8.548;2024-03-17T05:46:24;4.47;;;4.18;;
19566;SDS011;9930;49.240;8.548;2024-03-17T05:48:51;4.65;;;4.25;;
19566;SDS011;9930;49.240;8.548;2024-03-17T05:51:17;5.38;;;3.92;;
19566;SDS011;9930;49.240;8.548;2024-03-17T05:53:43;3.47;;;3.25;;
19566;SDS011;9930;49.240;8.548;2024-03-17T05:56:11;4.00;;;3.70;;
19566;SDS011;9930;49.240;8.548;2024-03-17T05:58:38;3.88;;;3.58;;
19566;SDS011;9930;49.240;8.548;2024-03-17T06:01:05;5.40;;;4.90;;
19566;SDS011;9930;49.240;8.548;2024-03-17T06:03:34;5.85;;;5.32;;
19566;SDS011;9930;49.240;8.548;2024-03-17T06:06:04;5.90;;;5.40;;
19566;SDS011;9930;49.240;8.548;2024-03-17T06:08:37;5.88;;;5.35;;
19566;SDS011;9930;49.240;8.548;2024-03-17T06:11:06;5.47;;;4.45;;
19566;SDS011;9930;49.240;8.548;2024-03-17T06:13:33;5.13;;;4.72;;
19566;SDS011;9930;49.240;8.548;2024-03-17T06:15:59;5.22;;;4.72;;
19566;SDS011;9930;49.240;8.548;2024-03-17T06:18:27;7.07;;;6.38;;
19566;SDS011;9930;49.240;8.548;2024-03-17T06:20:53;10.32;;;7.55;;
19566;SDS011;9930;49.240;8.548;2024-03-17T06:23:19;8.55;;;6.90;;
19566;SDS011;9930;49.240;8.548;2024-03-17T06:25:46;8.32;;;7.07;;
19566;SDS011;9930;49.240;8.548;2024-03-17T06:28:15;10.60;;;9.20;;
19566;SDS011;9930;49.240;8.548;2024-03-17T06:33:16;12.65;;;10.00;;
19566;SDS011;9930;49.240;8.548;2024-03-17T06:35:45;9.63;;;8.63;;
19566;SDS011;9930;49.240;8.548;2024-03-17T06:38:12;6.53;;;5.93;;
19566;SDS011;9930;49.240;8.548;2024-03-17T06:40:40;6.60;;;5.82;;
19566;SDS011;9930;49.240;8.548;2024-03-17T06:43:06;7.63;;;6.82;;
19566;SDS011;9930;49.240;8.548;2024-03-17T06:45:33;6.47;;;5.80;;
19566;SDS011;9930;49.240;8.548;2024-03-17T06:47:59;5.05;;;4.55;;
19566;SDS011;9930;49.240;8.548;2024-03-17T06:50:25;4.68;;;4.28;;
19566;SDS011;9930;49.240;8.548;2024-03-17T06:52:51;4.45;;;4.05;;
19566;SDS011;9930;49.240;8.548;2024-03-17T06:55:17;4.35;;;3.95;;
19566;SDS011;9930;49.240;8.548;2024-03-17T06:57:46;4.53;;;4.13;;
19566;SDS011;9930;49.240;8.548;2024-03-17T07:00:12;4.40;;;4.10;;
19566;SDS011;9930;49.240;8.548;2024-03-17T07:02:40;4.35;;;3.95;;
19566;SDS011;9930;49.240;8.548;2024-03-17T07:05:10;4.50;;;4.15;;
19566;SDS011;9930;49.240;8.548;2024-03-17T07:07:43;4.78;;;4.20;;
19566;SDS011;9930;49.240;8.548;2024-03-17T07:10:09;4.13;;;3.80;;
19566;SDS011;9930;49.240;8.548;2024-03-17T07:12:37;4.55;;;4.00;;
19566;SDS011;9930;49.240;8.548;2024-03-17T07:15:04;4.30;;;3.92;;
19566;SDS011;9930;49.240;8.548;2024-03-17T07:17:30;4.30;;;4.00;;
19566;SDS011;9930;49.240;8.548;2024-03-17T07:19:57;5.50;;;4.70;;
19566;SDS011;9930;49.240;8.548;2024-03-17T07:22:23;5.05;;;4.43;;
19566;SDS011;9930;49.240;8.548;2024-03-17T07:24:51;4.47;;;4.07;;
19566;SDS011;9930;49.240;8.548;2024-03-17T07:27:25;4.10;;;3.80;;
19566;SDS011;9930;49.240;8.548;2024-03-17T07:29:51;4.15;;;3.85;;
19566;SDS011;9930;49.240;8.548;2024-03-17T07:32:17;4.75;;;4.35;;
19566;SDS011;9930;49.240;8.548;2024-03-17T07:34:42;4.20;;;3.80;;
19566;SDS011;9930;49.240;8.548;2024-03-17T07:37:08;4.93;;;4.47;;
19566;SDS011;9930;49.240;8.548;2024-03-17T07:39:34;4.80;;;4.07;;
19566;SDS011;9930;49.240;8.548;2024-03-17T07:42:00;4.70;;;4.18;;
19566;SDS011;9930;49.240;8.548;2024-03-17T07:44:27;4.78;;;4.38;;
19566;SDS011;9930;49.240;8.548;2024-03-17T07:47:01;4.60;;;4.20;;
19566;SDS011;9930;49.240;8.548;2024-03-17T07:49:28;4.97;;;4.55;;
19566;SDS011;9930;49.240;8.548;2024-03-17T07:51:55;5.05;;;4.55;;
19566;SDS011;9930;49.240;8.548;2024-03-17T07:54:22;5.22;;;4.53;;
19566;SDS011;9930;49.240;8.548;2024-03-17T07:56:51;4.65;;;4.20;;
19566;SDS011;9930;49.240;8.548;2024-03-17T07:59:17;4.70;;;4.30;;
19566;SDS011;9930;49.240;8.548;2024-03-17T08:01:44;4.85;;;4.45;;
19566;SDS011;9930;49.240;8.548;2024-03-17T08:04:10;4.93;;;4.40;;
19566;SDS011;9930;49.240;8.548;2024-03-17T08:06:37;4.80;;;4.40;;
19566;SDS011;9930;49.240;8.548;2024-03-17T08:09:04;4.95;;;4.55;;
19566;SDS011;9930;49.240;8.548;2024-03-17T08:11:29;4.80;;;4.40;;
19566;SDS011;9930;49.240;8.548;2024-03-17T08:13:55;5.18;;;4.68;;
19566;SDS011;9930;49.240;8.548;2024-03-17T08:16:21;5.47;;;4.78;;
19566;SDS011;9930;49.240;8.548;2024-03-17T08:18:49;7.35;;;4.45;;
19566;SDS011;9930;49.240;8.548;2024-03-17T08:21:15;5.22;;;4.75;;
19566;SDS011;9930;49.240;8.548;2024-03-17T08:23:40;5.03;;;4.63;;
19566;SDS011;9930;49.240;8.548;2024-03-17T08:26:11;5.05;;;4.65;;
19566;SDS011;9930;49.240;8.548;2024-03-17T08:28:36;4.90;;;4.50;;
19566;SDS011;9930;49.240;8.548;2024-03-17T08:31:02;5.07;;;4.55;;
19566;SDS011;9930;49.240;8.548;2024-03-17T08:33:29;5.18;;;4.68;;
19566;SDS011;9930;49.240;8.548;2024-03-17T08:38:22;5.88;;;5.38;;
19566;SDS011;9930;49.240;8.548;2024-03-17T08:40:51;5.60;;;5.10;;
19566;SDS011;9930;49.240;8.548;2024-03-17T08:43:19;6.20;;;5.53;;
19566;SDS011;9930;49.240;8.548;2024-03-17T08:48:27;5.63;;;5.13;;
19566;SDS011;9930;49.240;8.548;2024-03-17T08:50:54;4.93;;;4.53;;
19566;SDS011;9930;49.240;8.548;2024-03-17T08:53:20;7.15;;;6.45;;
19566;SDS011;9930;49.240;8.548;2024-03-17T08:55:47;7.07;;;6.47;;
19566;SDS011;9930;49.240;8.548;2024-03-17T08:58:13;6.30;;;5.70;;
19566;SDS011;9930;49.240;8.548;2024-03-17T09:00:39;5.75;;;5.25;;
19566;SDS011;9930;49.240;8.548;2024-03-17T09:03:06;5.72;;;5.22;;
19566;SDS011;9930;49.240;8.548;2024-03-17T09:05:35;6.43;;;5.72;;
19566;SDS011;9930;49.240;8.548;2024-03-17T09:08:02;5.95;;;5.45;;
19566;SDS011;9930;49.240;8.548;2024-03-17T09:10:28;5.45;;;4.95;;
19566;SDS011;9930;49.240;8.548;2024-03-17T09:12:54;5.32;;;4.82;;
19566;SDS011;9930;49.240;8.548;2024-03-17T09:15:20;5.32;;;4.90;;
19566;SDS011;9930;49.240;8.548;2024-03-17T09:17:46;5.43;;;4.93;;
19566;SDS011;9930;49.240;8.548;2024-03-17T09:20:12;5.32;;;4.82;;
19566;SDS011;9930;49.240;8.548;2024-03-17T09:22:40;5.70;;;5.10;;
19566;SDS011;9930;49.240;8.548;2024-03-17T09:25:07;5.13;;;4.72;;
19566;SDS011;9930;49.240;8.548;2024-03-17T09:27:33;6.40;;;5.82;;
19566;SDS011;9930;49.240;8.548;2024-03-17T09:30:05;5.45;;;4.95;;
19566;SDS011;9930;49.240;8.548;2024-03-17T09:32:34;5.53;;;5.05;;
19566;SDS011;9930;49.240;8.548;2024-03-17T09:35:03;5.25;;;4.85;;
19566;SDS011;9930;49.240;8.548;2024-03-17T09:37:30;5.90;;;5.30;;
19566;SDS011;9930;49.240;8.548;2024-03-17T09:39:59;5.35;;;4.85;;
19566;SDS011;9930;49.240;8.548;2024-03-17T09:42:25;5.78;;;5.28;;
19566;SDS011;9930;49.240;8.548;2024-03-17T09:44:54;5.45;;;5.00;;
19566;SDS011;9930;49.240;8.548;2024-03-17T09:47:21;6.63;;;6.00;;
19566;SDS011;9930;49.240;8.548;2024-03-17T09:49:48;5.88;;;5.38;;
19566;SDS011;9930;49.240;8.548;2024-03-17T09:52:22;5.50;;;5.00;;
19566;SDS011;9930;49.240;8.548;2024-03-17T09:54:54;5.65;;;5.15;;
19566;SDS011;9930;49.240;8.548;2024-03-17T09:57:26;5.50;;;5.00;;
19566;SDS011;9930;49.240;8.548;2024-03-17T09:59:54;5.00;;;4.60;;
19566;SDS011;9930;49.240;8.548;2024-03-17T10:02:20;4.78;;;4.38;;
19566;SDS011;9930;49.240;8.548;2024-03-17T10:04:49;5.82;;;5.22;;
19566;SDS011;9930;49.240;8.548;2024-03-17T10:07:15;5.07;;;4.68;;
19566;SDS011;9930;49.240;8.548;2024-03-17T10:09:42;5.38;;;4.88;;
19566;SDS011;9930;49.240;8.548;2024-03-17T10:12:28;5.10;;;4.68;;
19566;SDS011;9930;49.240;8.548;2024-03-17T10:14:58;5.00;;;4.60;;
19566;SDS011;9930;49.240;8.548;2024-03-17T10:17:31;5.18;;;4.75;;
19566;SDS011;9930;49.240;8.548;2024-03-17T10:20:17;4.88;;;4.47;;
19566;SDS011;9930;49.240;8.548;2024-03-17T10:25:30;5.22;;;4.72;;
19566;SDS011;9930;49.240;8.548;2024-03-17T10:27:59;5.65;;;5.15;;
19566;SDS011;9930;49.240;8.548;2024-03-17T10:30:26;4.88;;;4.47;;
19566;SDS011;9930;49.240;8.548;2024-03-17T10:35:29;4.95;;;4.55;;
19566;SDS011;9930;49.240;8.548;2024-03-17T10:38:02;4.28;;;3.88;;
19566;SDS011;9930;49.240;8.548;2024-03-17T10:40:34;4.50;;;4.10;;
19566;SDS011;9930;49.240;8.548;2024-03-17T10:43:04;4.65;;;4.25;;
19566;SDS011;9930;49.240;8.548;2024-03-17T10:45:31;4.93;;;4.53;;
19566;SDS011;9930;49.240;8.548;2024-03-17T10:48:03;5.55;;;5.05;;
19566;SDS011;9930;49.240;8.548;2024-03-17T10:50:35;5.07;;;4.68;;
19566;SDS011;9930;49.240;8.548;2024-03-17T10:53:03;4.88;;;4.47;;
19566;SDS011;9930;49.240;8.548;2024-03-17T10:55:55;4.18;;;3.88;;
19566;SDS011;9930;49.240;8.548;2024-03-17T10:58:33;4.57;;;4.20;;
19566;SDS011;9930;49.240;8.548;2024-03-17T11:01:06;5.35;;;4.85;;
19566;SDS011;9930;49.240;8.548;2024-03-17T11:03:32;5.07;;;4.68;;
19566;SDS011;9930;49.240;8.548;2024-03-17T11:06:00;6.55;;;4.38;;
19566;SDS011;9930;49.240;8.548;2024-03-17T11:08:30;4.80;;;4.40;;
19566;SDS011;9930;49.240;8.548;2024-03-17T11:10:58;5.10;;;4.60;;
19566;SDS011;9930;49.240;8.548;2024-03-17T11:13:27;4.68;;;4.28;;
19566;SDS011;9930;49.240;8.548;2024-03-17T11:15:56;5.35;;;4.05;;
19566;SDS011;9930;49.240;8.548;2024-03-17T11:23:37;5.20;;;4.70;;
19566;SDS011;9930;49.240;8.548;2024-03-17T11:26:04;5.28;;;4.43;;
19566;SDS011;9930;49.240;8.548;2024-03-17T11:34:02;4.30;;;3.90;;
19566;SDS011;9930;49.240;8.548;2024-03-17T11:36:33;4.45;;;4.00;;
19566;SDS011;9930;49.240;8.548;2024-03-17T11:39:08;4.38;;;3.90;;
19566;SDS011;9930;49.240;8.548;2024-03-17T11:41:49;4.70;;;4.30;;
19566;SDS011;9930;49.240;8.548;2024-03-17T11:49:36;4.40;;;4.10;;
19566;SDS011;9930;49.240;8.548;2024-03-17T11:52:11;4.38;;;3.92;;
19566;SDS011;9930;49.240;8.548;2024-03-17T11:54:49;4.07;;;3.67;;
19566;SDS011;9930;49.240;8.548;2024-03-17T11:57:24;4.00;;;3.70;;
19566;SDS011;9930;49.240;8.548;2024-03-17T11:59:52;4.30;;;3.67;;
19566;SDS011;9930;49.240;8.548;2024-03-17T12:04:57;3.35;;;3.05;;
19566;SDS011;9930;49.240;8.548;2024-03-17T12:07:25;4.72;;;4.32;;
19566;SDS011;9930;49.240;8.548;2024-03-17T12:09:53;4.55;;;4.00;;
19566;SDS011;9930;49.240;8.548;2024-03-17T12:12:20;3.85;;;3.55;;
19566;SDS011;9930;49.240;8.548;2024-03-17T12:14:48;3.42;;;3.13;;
19566;SDS011;9930;49.240;8.548;2024-03-17T12:17:23;3.40;;;3.10;;
19566;SDS011;9930;49.240;8.548;2024-03-17T12:19:50;3.50;;;3.08;;
19566;SDS011;9930;49.240;8.548;2024-03-17T12:24:53;3.70;;;3.40;;
19566;SDS011;9930;49.240;8.548;2024-03-17T12:27:24;3.05;;;2.80;;
19566;SDS011;9930;49.240;8.548;2024-03-17T12:29:52;3.25;;;3.05;;
19566;SDS011;9930;49.240;8.548;2024-03-17T12:32:20;3.75;;;3.22;;
19566;SDS011;9930;49.240;8.548;2024-03-17T12:34:51;3.63;;;3.33;;
19566;SDS011;9930;49.240;8.548;2024-03-17T12:37:25;3.40;;;3.10;;
19566;SDS011;9930;49.240;8.548;2024-03-17T12:40:01;3.45;;;3.17;;
19566;SDS011;9930;49.240;8.548;2024-03-17T12:42:28;3.03;;;2.83;;
19566;SDS011;9930;49.240;8.548;2024-03-17T12:44:59;3.10;;;2.80;;
19566;SDS011;9930;49.240;8.548;2024-03-17T12:47:31;3.30;;;3.00;;
19566;SDS011;9930;49.240;8.548;2024-03-17T12:50:00;3.47;;;3.17;;
19566;SDS011;9930;49.240;8.548;2024-03-17T12:52:31;4.20;;;3.80;;
19566;SDS011;9930;49.240;8.548;2024-03-17T12:55:01;3.15;;;2.85;;
19566;SDS011;9930;49.240;8.548;2024-03-17T13:00:46;3.10;;;2.80;;
19566;SDS011;9930;49.240;8.548;2024-03-17T13:03:25;2.88;;;2.63;;
19566;SDS011;9930;49.240;8.548;2024-03-17T13:06:00;2.92;;;2.72;;
19566;SDS011;9930;49.240;8.548;2024-03-17T13:08:28;3.20;;;3.00;;
19566;SDS011;9930;49.240;8.548;2024-03-17T13:10:54;3.35;;;3.00;;
19566;SDS011;9930;49.240;8.548;2024-03-17T13:13:20;2.90;;;2.42;;
19566;SDS011;9930;49.240;8.548;2024-03-17T13:15:46;3.00;;;2.80;;
19566;SDS011;9930;49.240;8.548;2024-03-17T13:18:20;3.00;;;2.70;;
19566;SDS011;9930;49.240;8.548;2024-03-17T13:20:47;2.70;;;2.50;;
19566;SDS011;9930;49.240;8.548;2024-03-17T13:23:18;3.70;;;3.10;;
19566;SDS011;9930;49.240;8.548;2024-03-17T13:25:44;3.95;;;3.55;;
19566;SDS011;9930;49.240;8.548;2024-03-17T13:28:10;7.15;;;6.65;;
19566;SDS011;9930;49.240;8.548;2024-03-17T13:30:36;4.22;;;3.92;;
19566;SDS011;9930;49.240;8.548;2024-03-17T13:33:06;3.88;;;3.58;;
19566;SDS011;9930;49.240;8.548;2024-03-17T13:35:36;3.38;;;3.08;;
19566;SDS011;9930;49.240;8.548;2024-03-17T13:38:04;3.00;;;2.80;;
19566;SDS011;9930;49.240;8.548;2024-03-17T13:40:32;3.00;;;2.80;;
19566;SDS011;9930;49.240;8.548;2024-03-17T13:42:59;2.90;;;2.70;;
19566;SDS011;9930;49.240;8.548;2024-03-17T13:45:26;3.80;;;3.42;;
19566;SDS011;9930;49.240;8.548;2024-03-17T13:47:56;3.00;;;2.70;;
19566;SDS011;9930;49.240;8.548;2024-03-17T13:50:24;2.65;;;2.45;;
19566;SDS011;9930;49.240;8.548;2024-03-17T13:52:51;3.10;;;2.90;;
19566;SDS011;9930;49.240;8.548;2024-03-17T13:55:18;2.90;;;2.38;;
19566;SDS011;9930;49.240;8.548;2024-03-17T13:57:53;3.30;;;3.00;;
19566;SDS011;9930;49.240;8.548;2024-03-17T14:00:25;3.90;;;3.60;;
19566;SDS011;9930;49.240;8.548;2024-03-17T14:02:53;4.88;;;4.40;;
19566;SDS011;9930;49.240;8.548;2024-03-17T14:05:21;2.75;;;2.55;;
19566;SDS011;9930;49.240;8.548;2024-03-17T14:07:49;3.00;;;2.60;;
19566;SDS011;9930;49.240;8.548;2024-03-17T14:10:17;2.70;;;2.50;;
19566;SDS011;9930;49.240;8.548;2024-03-17T14:12:44;2.67;;;2.47;;
19566;SDS011;9930;49.240;8.548;2024-03-17T14:15:11;3.08;;;2.17;;
19566;SDS011;9930;49.240;8.548;2024-03-17T14:17:39;2.20;;;2.00;;
19566;SDS011;9930;49.240;8.548;2024-03-17T14:20:08;2.35;;;2.15;;
19566;SDS011;9930;49.240;8.548;2024-03-17T14:22:38;2.30;;;2.10;;
19566;SDS011;9930;49.240;8.548;2024-03-17T14:25:07;2.47;;;2.20;;
19566;SDS011;9930;49.240;8.548;2024-03-17T14:27:36;2.40;;;2.20;;
19566;SDS011;9930;49.240;8.548;2024-03-17T14:30:02;2.38;;;2.17;;
19566;SDS011;9930;49.240;8.548;2024-03-17T14:32:29;2.10;;;2.00;;
19566;SDS011;9930;49.240;8.548;2024-03-17T14:34:55;2.40;;;2.20;;
19566;SDS011;9930;49.240;8.548;2024-03-17T14:37:21;2.35;;;2.17;;
19566;SDS011;9930;49.240;8.548;2024-03-17T14:39:47;2.40;;;2.20;;
19566;SDS011;9930;49.240;8.548;2024-03-17T14:42:15;2.35;;;2.15;;
19566;SDS011;9930;49.240;8.548;2024-03-17T14:44:40;1.92;;;1.83;;
19566;SDS011;9930;49.240;8.548;2024-03-17T14:47:06;2.25;;;2.03;;
19566;SDS011;9930;49.240;8.548;2024-03-17T14:49:32;2.63;;;2.25;;
19566;SDS011;9930;49.240;8.548;2024-03-17T14:52:01;2.22;;;2.03;;
19566;SDS011;9930;49.240;8.548;2024-03-17T14:54:26;2.22;;;2.03;;
19566;SDS011;9930;49.240;8.548;2024-03-17T14:56:52;2.10;;;1.92;;
19566;SDS011;9930;49.240;8.548;2024-03-17T14:59:21;2.33;;;2.13;;
19566;SDS011;9930;49.240;8.548;2024-03-17T15:01:46;2.17;;;2.08;;
19566;SDS011;9930;49.240;8.548;2024-03-17T15:04:12;2.40;;;2.17;;
19566;SDS011;9930;49.240;8.548;2024-03-17T15:06:40;2.25;;;2.10;;
19566;SDS011;9930;49.240;8.548;2024-03-17T15:09:06;2.30;;;2.10;;
19566;SDS011;9930;49.240;8.548;2024-03-17T15:11:33;2.50;;;2.30;;
19566;SDS011;9930;49.240;8.548;2024-03-17T15:13:59;2.60;;;2.30;;
19566;SDS011;9930;49.240;8.548;2024-03-17T15:16:24;2.58;;;2.38;;
19566;SDS011;9930;49.240;8.548;2024-03-17T15:18:50;4.28;;;3.75;;
19566;SDS011;9930;49.240;8.548;2024-03-17T15:21:16;2.97;;;2.67;;
19566;SDS011;9930;49.240;8.548;2024-03-17T15:23:41;3.10;;;2.60;;
19566;SDS011;9930;49.240;8.548;2024-03-17T15:26:07;3.58;;;2.53;;
19566;SDS011;9930;49.240;8.548;2024-03-17T15:28:38;4.72;;;3.33;;
19566;SDS011;9930;49.240;8.548;2024-03-17T15:31:09;26.75;;;12.35;;
19566;SDS011;9930;49.240;8.548;2024-03-17T15:33:35;10.55;;;5.68;;
19566;SDS011;9930;49.240;8.548;2024-03-17T15:36:05;16.27;;;8.57;;
19566;SDS011;9930;49.240;8.548;2024-03-17T15:38:36;9.13;;;5.70;;
19566;SDS011;9930;49.240;8.548;2024-03-17T15:41:03;5.75;;;3.83;;